Time;durP1;ratioP1;P1;durP2;ratioP2;P2;SDS_P1;SDS_P2;PMS_P1;PMS_P2;Temp;Humidity;BMP_temperature;BMP_pressure;BME280_temperature;BME280_humidity;BME280_pressure;Samples;Min_cycle;Max_cycle;Signal;HPM_P1;HPM_P2
2023/07/18 00:02:01;;;;;;;6.90;4.30;;;;;;;;;;5023683;28;20038;-79
2023/07/18 00:04:27;;;;;;;7.80;3.70;;;;;;;;;;5007008;28;20383;-78
2023/07/18 00:06:54;;;;;;;5.55;2.95;;;;;;;;;;5024702;28;20033;-78
2023/07/18 00:09:20;;;;;;;5.70;3.03;;;;;;;;;;5004338;28;20068;-79
2023/07/18 00:11:47;;;;;;;9.10;4.22;;;;;;;;;;5006484;28;20049;-78
2023/07/18 00:14:14;;;;;;;8.27;4.93;;;;;;;;;;5003677;28;20026;-78
2023/07/18 00:16:44;;;;;;;6.30;2.85;;;;;;;;;;5003346;28;20344;-78
2023/07/18 00:19:12;;;;;;;7.18;4.60;;;;;;;;;;5004834;28;20040;-79
2023/07/18 00:21:41;;;;;;;8.05;3.13;;;;;;;;;;5007101;28;20600;-78
2023/07/18 00:24:07;;;;;;;6.72;3.03;;;;;;;;;;5006674;28;20049;-78
2023/07/18 00:26:34;;;;;;;6.82;3.25;;;;;;;;;;5006361;28;20450;-78
2023/07/18 00:29:00;;;;;;;4.88;3.15;;;;;;;;;;5005764;28;20057;-79
2023/07/18 00:31:27;;;;;;;5.53;2.65;;;;;;;;;;5007033;28;20091;-79
2023/07/18 00:33:55;;;;;;;7.18;3.22;;;;;;;;;;5006864;28;20048;-78
2023/07/18 00:36:25;;;;;;;7.53;3.70;;;;;;;;;;5004577;28;20044;-78
2023/07/18 00:38:52;;;;;;;7.78;4.45;;;;;;;;;;5006516;28;20099;-79
2023/07/18 00:41:20;;;;;;;6.55;3.67;;;;;;;;;;5004031;28;20035;-78
2023/07/18 00:43:46;;;;;;;5.47;3.70;;;;;;;;;;5006928;28;20033;-77
2023/07/18 00:46:14;;;;;;;4.13;3.10;;;;;;;;;;5023787;28;20647;-78
2023/07/18 00:48:40;;;;;;;6.60;3.37;;;;;;;;;;5003052;28;20173;-78
2023/07/18 00:51:07;;;;;;;7.93;3.13;;;;;;;;;;5001158;28;20037;-78
2023/07/18 00:53:34;;;;;;;7.43;3.22;;;;;;;;;;5000845;28;20037;-78
2023/07/18 00:56:01;;;;;;;5.07;2.70;;;;;;;;;;5003129;28;20041;-78
2023/07/18 00:58:28;;;;;;;6.53;2.88;;;;;;;;;;5001742;28;20064;-78
2023/07/18 01:00:54;;;;;;;8.17;3.30;;;;;;;;;;5001736;28;20046;-78
2023/07/18 01:03:23;;;;;;;4.87;3.47;;;;;;;;;;5007365;28;20478;-78
2023/07/18 01:05:49;;;;;;;12.20;3.10;;;;;;;;;;5002798;28;20132;-78
2023/07/18 01:08:15;;;;;;;7.70;3.23;;;;;;;;;;5002355;28;20041;-77
2023/07/18 01:10:41;;;;;;;4.27;2.90;;;;;;;;;;5002585;28;20061;-77
2023/07/18 01:13:07;;;;;;;6.13;3.10;;;;;;;;;;5003708;28;20034;-78
2023/07/18 01:15:34;;;;;;;6.70;3.22;;;;;;;;;;5004312;28;20075;-78
2023/07/18 01:18:07;;;;;;;5.50;2.67;;;;;;;;;;5004137;28;20123;-78
2023/07/18 01:20:36;;;;;;;5.80;2.53;;;;;;;;;;5002347;28;20037;-78
2023/07/18 01:23:05;;;;;;;5.57;2.67;;;;;;;;;;5003793;28;20036;-78
2023/07/18 01:25:31;;;;;;;6.23;2.83;;;;;;;;;;5004542;28;20057;-78
2023/07/18 01:27:59;;;;;;;8.03;3.03;;;;;;;;;;5004710;28;20352;-77
2023/07/18 01:30:26;;;;;;;5.77;2.63;;;;;;;;;;5004893;28;20104;-78
2023/07/18 01:32:53;;;;;;;6.17;2.93;;;;;;;;;;5004047;28;20050;-77
2023/07/18 01:35:20;;;;;;;5.53;3.20;;;;;;;;;;5006832;28;20036;-78
2023/07/18 01:37:46;;;;;;;10.20;3.40;;;;;;;;;;5005152;28;20365;-77
2023/07/18 01:40:19;;;;;;;8.07;2.70;;;;;;;;;;5004927;28;20088;-78
2023/07/18 01:42:46;;;;;;;7.33;3.07;;;;;;;;;;5007636;28;20038;-78
2023/07/18 01:45:12;;;;;;;9.57;3.13;;;;;;;;;;5011092;28;20022;-78
2023/07/18 01:47:38;;;;;;;11.03;3.00;;;;;;;;;;5010050;28;20414;-77
2023/07/18 01:50:05;;;;;;;8.60;2.90;;;;;;;;;;5010304;28;20378;-77
2023/07/18 01:52:34;;;;;;;5.53;3.03;;;;;;;;;;5011049;28;20107;-78
2023/07/18 01:55:00;;;;;;;6.57;3.20;;;;;;;;;;5009542;28;20057;-78
2023/07/18 01:57:31;;;;;;;8.13;3.00;;;;;;;;;;5004090;28;20023;-79
2023/07/18 02:00:00;;;;;;;7.47;2.87;;;;;;;;;;5026241;28;20034;-76
2023/07/18 02:02:27;;;;;;;8.60;2.80;;;;;;;;;;5007342;28;20057;-79
2023/07/18 02:04:53;;;;;;;8.17;3.10;;;;;;;;;;5025340;28;20030;-77
2023/07/18 02:07:19;;;;;;;7.07;3.07;;;;;;;;;;5010295;28;20050;-79
2023/07/18 02:09:48;;;;;;;11.33;3.40;;;;;;;;;;5007559;28;20030;-78
2023/07/18 02:12:15;;;;;;;7.83;3.20;;;;;;;;;;5025685;28;20045;-77
2023/07/18 02:14:41;;;;;;;5.20;2.83;;;;;;;;;;5005325;28;20489;-78
2023/07/18 02:17:08;;;;;;;8.73;3.40;;;;;;;;;;5008689;28;20030;-78
2023/07/18 02:19:35;;;;;;;6.93;2.87;;;;;;;;;;5006558;28;20792;-78
2023/07/18 02:22:01;;;;;;;5.37;3.13;;;;;;;;;;5006132;28;20059;-78
2023/07/18 02:24:27;;;;;;;6.40;3.07;;;;;;;;;;5008868;28;20026;-78
2023/07/18 02:26:54;;;;;;;5.23;3.00;;;;;;;;;;5006048;28;20048;-78
2023/07/18 02:29:20;;;;;;;7.03;2.87;;;;;;;;;;5009901;28;20444;-79
2023/07/18 02:31:46;;;;;;;6.63;2.70;;;;;;;;;;5009105;28;20030;-78
2023/07/18 02:34:12;;;;;;;6.00;3.10;;;;;;;;;;5004682;28;20026;-78
2023/07/18 02:36:40;;;;;;;10.47;3.57;;;;;;;;;;5007084;28;20053;-78
2023/07/18 02:39:10;;;;;;;6.23;3.10;;;;;;;;;;5004454;28;20038;-78
2023/07/18 02:41:37;;;;;;;7.97;3.80;;;;;;;;;;5007212;28;20038;-78
2023/07/18 02:44:05;;;;;;;9.13;4.30;;;;;;;;;;5006603;28;20482;-78
2023/07/18 02:46:33;;;;;;;7.07;2.90;;;;;;;;;;5007094;28;20034;-78
2023/07/18 02:49:03;;;;;;;7.83;2.97;;;;;;;;;;5023317;28;20038;-78
2023/07/18 02:51:29;;;;;;;7.33;3.50;;;;;;;;;;5009139;28;20038;-79
2023/07/18 02:53:55;;;;;;;8.37;3.60;;;;;;;;;;5007709;28;20366;-78
2023/07/18 02:56:24;;;;;;;8.07;3.60;;;;;;;;;;5006635;28;20481;-77
2023/07/18 02:58:50;;;;;;;8.07;3.33;;;;;;;;;;5006578;28;20040;-78
2023/07/18 03:01:19;;;;;;;9.80;2.90;;;;;;;;;;5008913;28;20041;-78
2023/07/18 03:03:48;;;;;;;8.57;3.43;;;;;;;;;;5007295;28;20044;-78
2023/07/18 03:06:17;;;;;;;9.90;3.27;;;;;;;;;;5009482;28;20454;-78
2023/07/18 03:08:44;;;;;;;8.33;2.83;;;;;;;;;;5008400;28;20044;-78
2023/07/18 03:11:10;;;;;;;7.43;3.40;;;;;;;;;;5009736;28;20030;-77
2023/07/18 03:13:36;;;;;;;8.40;3.43;;;;;;;;;;5007592;28;20194;-78
2023/07/18 03:16:04;;;;;;;7.23;3.03;;;;;;;;;;5009022;28;20036;-78
2023/07/18 03:18:30;;;;;;;10.13;3.23;;;;;;;;;;5006364;28;20037;-77
2023/07/18 03:20:56;;;;;;;6.47;3.10;;;;;;;;;;5005976;28;20031;-76
2023/07/18 03:23:22;;;;;;;10.13;3.27;;;;;;;;;;5004883;28;20045;-76
2023/07/18 03:25:48;;;;;;;6.93;2.67;;;;;;;;;;5003257;28;20038;-78
2023/07/18 03:28:14;;;;;;;7.93;3.50;;;;;;;;;;5008336;28;20042;-77
2023/07/18 03:30:40;;;;;;;7.27;3.30;;;;;;;;;;5003667;28;20875;-77
2023/07/18 03:33:06;;;;;;;5.77;3.17;;;;;;;;;;5009572;28;20483;-79
2023/07/18 03:35:33;;;;;;;7.43;3.47;;;;;;;;;;5005413;28;20121;-78
2023/07/18 03:38:01;;;;;;;4.43;2.50;;;;;;;;;;5006548;28;20034;-78
2023/07/18 03:40:27;;;;;;;13.43;3.70;;;;;;;;;;5008225;28;20096;-78
2023/07/18 03:42:53;;;;;;;5.20;2.80;;;;;;;;;;5007694;28;20072;-78
2023/07/18 03:45:20;;;;;;;7.83;3.47;;;;;;;;;;5023928;28;21636;-78
2023/07/18 03:47:46;;;;;;;6.97;3.07;;;;;;;;;;5006224;28;20726;-78
2023/07/18 03:50:16;;;;;;;5.83;3.60;;;;;;;;;;5004764;28;20092;-77
2023/07/18 03:52:42;;;;;;;12.43;3.33;;;;;;;;;;5011089;28;20038;-77
2023/07/18 03:55:08;;;;;;;6.70;3.30;;;;;;;;;;5004121;28;20256;-78
2023/07/18 03:57:37;;;;;;;6.60;3.97;;;;;;;;;;5003821;28;20038;-76
2023/07/18 04:00:13;;;;;;;11.10;3.40;;;;;;;;;;5006928;28;20107;-78
2023/07/18 04:02:39;;;;;;;6.77;2.40;;;;;;;;;;5004830;28;20485;-77
2023/07/18 04:05:05;;;;;;;10.73;3.53;;;;;;;;;;5003242;28;20030;-79
2023/07/18 04:07:32;;;;;;;9.37;3.67;;;;;;;;;;5022849;28;20041;-77
2023/07/18 04:09:58;;;;;;;5.07;2.80;;;;;;;;;;5005033;28;20033;-78
2023/07/18 04:12:24;;;;;;;7.00;3.00;;;;;;;;;;5006987;28;20133;-78
2023/07/18 04:14:50;;;;;;;11.23;4.07;;;;;;;;;;5004591;28;20121;-77
2023/07/18 04:17:16;;;;;;;5.40;2.90;;;;;;;;;;5004285;28;20037;-77
2023/07/18 04:19:45;;;;;;;7.37;3.03;;;;;;;;;;5003189;28;20731;-77
2023/07/18 04:22:11;;;;;;;10.73;4.00;;;;;;;;;;5022183;28;20828;-77
2023/07/18 04:24:37;;;;;;;10.60;3.60;;;;;;;;;;5004876;28;20036;-78
2023/07/18 04:27:03;;;;;;;7.27;3.20;;;;;;;;;;5007037;28;20033;-78
2023/07/18 04:29:31;;;;;;;6.87;3.27;;;;;;;;;;5004437;28;20033;-78
2023/07/18 04:31:59;;;;;;;8.47;3.03;;;;;;;;;;5003487;28;20383;-78
2023/07/18 04:34:25;;;;;;;11.63;3.73;;;;;;;;;;5003845;28;20029;-77
2023/07/18 04:36:54;;;;;;;13.63;3.63;;;;;;;;;;5004320;28;20037;-77
2023/07/18 04:39:20;;;;;;;7.23;3.30;;;;;;;;;;5005061;28;20094;-78
2023/07/18 04:41:46;;;;;;;6.37;2.97;;;;;;;;;;5002755;28;20037;-78
2023/07/18 04:44:14;;;;;;;7.07;3.47;;;;;;;;;;5005957;28;20019;-78
2023/07/18 04:46:41;;;;;;;9.97;3.53;;;;;;;;;;5007490;28;20105;-77
2023/07/18 04:49:07;;;;;;;9.00;3.53;;;;;;;;;;5004177;28;20029;-77
2023/07/18 04:51:33;;;;;;;7.77;3.80;;;;;;;;;;5007228;28;20033;-77
2023/07/18 04:54:02;;;;;;;9.33;4.03;;;;;;;;;;5006442;28;21709;-78
2023/07/18 04:56:28;;;;;;;8.77;3.80;;;;;;;;;;5002350;28;20022;-78
2023/07/18 04:58:54;;;;;;;7.90;3.33;;;;;;;;;;5003901;28;20125;-77
2023/07/18 05:01:20;;;;;;;7.13;3.70;;;;;;;;;;5021653;28;20116;-78
2023/07/18 05:03:46;;;;;;;5.73;2.83;;;;;;;;;;5002532;28;20061;-78
2023/07/18 05:06:15;;;;;;;8.13;3.73;;;;;;;;;;5004043;28;20085;-78
2023/07/18 05:08:43;;;;;;;7.33;3.00;;;;;;;;;;5002300;28;20034;-78
2023/07/18 05:11:09;;;;;;;7.43;3.10;;;;;;;;;;5003185;28;20419;-76
2023/07/18 05:13:37;;;;;;;6.93;3.07;;;;;;;;;;5002880;28;20030;-78
2023/07/18 05:16:04;;;;;;;9.43;3.80;;;;;;;;;;5002516;28;20060;-78
2023/07/18 05:18:30;;;;;;;6.17;4.07;;;;;;;;;;5003911;28;20057;-78
2023/07/18 05:20:59;;;;;;;8.50;3.50;;;;;;;;;;5006493;28;20625;-78
2023/07/18 05:23:25;;;;;;;9.17;3.67;;;;;;;;;;5002646;28;20037;-78
2023/07/18 05:25:51;;;;;;;8.07;3.73;;;;;;;;;;5004842;28;21007;-78
2023/07/18 05:28:17;;;;;;;6.70;3.40;;;;;;;;;;5003618;28;20084;-78
2023/07/18 05:30:43;;;;;;;10.70;3.63;;;;;;;;;;5003256;28;20116;-78
2023/07/18 05:33:09;;;;;;;8.90;2.97;;;;;;;;;;5002470;28;20124;-78
2023/07/18 05:35:35;;;;;;;6.82;2.65;;;;;;;;;;5006356;28;20594;-79
2023/07/18 05:38:01;;;;;;;9.50;3.40;;;;;;;;;;5003150;28;20038;-78
2023/07/18 05:40:27;;;;;;;6.10;3.50;;;;;;;;;;5002870;28;21637;-77
2023/07/18 05:42:54;;;;;;;7.38;2.72;;;;;;;;;;5008439;28;20037;-78
2023/07/18 05:45:20;;;;;;;8.50;2.70;;;;;;;;;;5004195;28;20041;-77
2023/07/18 05:47:48;;;;;;;5.40;2.77;;;;;;;;;;5004848;28;20044;-78
2023/07/18 05:50:14;;;;;;;4.63;2.50;;;;;;;;;;5004831;28;20037;-78
2023/07/18 05:52:40;;;;;;;8.63;2.88;;;;;;;;;;5002768;28;20804;-77
2023/07/18 05:55:07;;;;;;;4.40;2.70;;;;;;;;;;5009409;28;20040;-78
2023/07/18 05:57:33;;;;;;;6.13;2.50;;;;;;;;;;5003986;28;20042;-77
2023/07/18 06:00:00;;;;;;;9.82;2.60;;;;;;;;;;5003072;28;20037;-78
2023/07/18 06:02:28;;;;;;;9.48;3.03;;;;;;;;;;5022230;28;20039;-78
2023/07/18 06:04:55;;;;;;;7.97;3.00;;;;;;;;;;5005751;28;20026;-78
2023/07/18 06:07:21;;;;;;;8.98;5.22;;;;;;;;;;5003701;28;20034;-77
2023/07/18 06:09:51;;;;;;;7.35;3.55;;;;;;;;;;5008147;28;20034;-78
2023/07/18 06:12:17;;;;;;;13.00;4.40;;;;;;;;;;5006903;28;20117;-78
2023/07/18 06:14:43;;;;;;;5.57;3.25;;;;;;;;;;5007754;28;20169;-78
2023/07/18 06:17:09;;;;;;;8.88;3.92;;;;;;;;;;5025256;28;20034;-78
2023/07/18 06:19:35;;;;;;;7.82;4.28;;;;;;;;;;5004126;28;20044;-78
2023/07/18 06:22:02;;;;;;;7.93;4.32;;;;;;;;;;5023000;28;20089;-75
2023/07/18 06:24:35;;;;;;;6.65;2.85;;;;;;;;;;5030019;28;20011;-75
2023/07/18 06:27:04;;;;;;;14.90;3.92;;;;;;;;;;5046610;28;20045;-75
2023/07/18 06:29:30;;;;;;;10.43;3.03;;;;;;;;;;5027842;28;20044;-74
2023/07/18 06:32:00;;;;;;;10.18;2.92;;;;;;;;;;5022474;28;20033;-79
2023/07/18 06:34:25;;;;;;;7.72;3.30;;;;;;;;;;5025120;28;20038;-77
2023/07/18 06:36:51;;;;;;;10.60;4.07;;;;;;;;;;5022188;28;20091;-78
2023/07/18 06:39:18;;;;;;;7.57;3.80;;;;;;;;;;5012943;28;20042;-79
2023/07/18 06:41:44;;;;;;;6.22;3.10;;;;;;;;;;5006877;28;20033;-78
2023/07/18 06:44:12;;;;;;;11.35;3.67;;;;;;;;;;5005866;28;20455;-78
2023/07/18 06:46:38;;;;;;;10.30;3.60;;;;;;;;;;5008161;28;20144;-78
2023/07/18 06:49:04;;;;;;;7.53;3.10;;;;;;;;;;5007845;28;20049;-78
2023/07/18 06:51:30;;;;;;;7.80;4.40;;;;;;;;;;5008510;28;20052;-78
2023/07/18 06:53:56;;;;;;;10.57;3.83;;;;;;;;;;5024599;28;20033;-78
2023/07/18 06:56:25;;;;;;;10.65;3.47;;;;;;;;;;5008556;28;20097;-78
2023/07/18 06:58:51;;;;;;;9.90;4.30;;;;;;;;;;5004642;28;20022;-79
2023/07/18 07:01:17;;;;;;;8.48;3.72;;;;;;;;;;5010688;28;20034;-78
2023/07/18 07:03:43;;;;;;;5.63;2.83;;;;;;;;;;5007655;28;20041;-79
2023/07/18 07:06:17;;;;;;;9.43;3.65;;;;;;;;;;5009663;28;20485;-79
2023/07/18 07:08:45;;;;;;;4.35;2.55;;;;;;;;;;5007516;28;20196;-79
2023/07/18 07:11:13;;;;;;;10.65;2.60;;;;;;;;;;5006705;28;20129;-79
2023/07/18 07:13:39;;;;;;;13.82;3.13;;;;;;;;;;5009371;28;20061;-79
2023/07/18 07:16:05;;;;;;;6.13;3.78;;;;;;;;;;5004823;28;20123;-78
2023/07/18 07:18:31;;;;;;;9.10;2.83;;;;;;;;;;5010006;28;21541;-80
2023/07/18 07:20:57;;;;;;;13.70;2.97;;;;;;;;;;5008762;28;20058;-78
2023/07/18 07:23:26;;;;;;;10.10;2.47;;;;;;;;;;5004281;28;20459;-78
2023/07/18 07:25:54;;;;;;;11.45;2.90;;;;;;;;;;5008404;28;20125;-79
2023/07/18 07:28:22;;;;;;;5.78;2.65;;;;;;;;;;5003460;28;20034;-79
2023/07/18 07:30:49;;;;;;;6.28;2.50;;;;;;;;;;5003460;28;20209;-78
2023/07/18 07:33:15;;;;;;;8.15;2.92;;;;;;;;;;5003128;28;20072;-77
2023/07/18 07:35:43;;;;;;;6.88;3.53;;;;;;;;;;5003471;28;20104;-80
2023/07/18 07:38:09;;;;;;;8.77;2.70;;;;;;;;;;5005230;28;20076;-78
2023/07/18 07:40:35;;;;;;;12.40;3.00;;;;;;;;;;5002228;28;20037;-82
2023/07/18 07:43:01;;;;;;;9.60;4.28;;;;;;;;;;5001558;28;20026;-79
2023/07/18 07:45:27;;;;;;;10.48;4.03;;;;;;;;;;5003714;28;20038;-81
2023/07/18 07:47:53;;;;;;;7.63;2.13;;;;;;;;;;5022258;28;21824;-80
2023/07/18 07:50:19;;;;;;;12.57;5.72;;;;;;;;;;5025412;28;20026;-80
2023/07/18 07:52:48;;;;;;;8.32;2.95;;;;;;;;;;5006198;28;20045;-77
2023/07/18 07:55:14;;;;;;;10.48;3.47;;;;;;;;;;5004048;28;20031;-84
2023/07/18 07:57:40;;;;;;;10.82;3.15;;;;;;;;;;5004876;28;20061;-83
2023/07/18 08:00:07;;;;;;;10.52;3.47;;;;;;;;;;5002399;28;20030;-84
2023/07/18 08:02:33;;;;;;;7.65;2.47;;;;;;;;;;5002080;28;20034;-87
2023/07/18 08:04:59;;;;;;;6.00;2.60;;;;;;;;;;5007498;28;20037;-84
2023/07/18 08:07:25;;;;;;;7.05;3.20;;;;;;;;;;5001947;28;21052;-86
2023/07/18 08:09:51;;;;;;;5.53;2.60;;;;;;;;;;5005047;28;20034;-85
2023/07/18 08:12:18;;;;;;;6.95;2.60;;;;;;;;;;5002172;28;20038;-82
2023/07/18 08:14:44;;;;;;;6.50;2.53;;;;;;;;;;5005260;28;20045;-86
2023/07/18 08:17:10;;;;;;;8.85;3.42;;;;;;;;;;5001587;28;20038;-85
2023/07/18 08:19:36;;;;;;;9.55;2.65;;;;;;;;;;5001090;28;20034;-85
2023/07/18 08:22:03;;;;;;;8.45;3.70;;;;;;;;;;5005585;28;20034;-84
2023/07/18 08:24:29;;;;;;;8.98;2.90;;;;;;;;;;5000896;28;20034;-84
2023/07/18 08:26:56;;;;;;;9.48;2.35;;;;;;;;;;5002050;28;20838;-88
2023/07/18 08:29:30;;;;;;;6.13;2.28;;;;;;;;;;5002398;28;20030;-88
2023/07/18 08:31:56;;;;;;;9.35;2.58;;;;;;;;;;5020692;28;20069;-88
2023/07/18 08:34:22;;;;;;;6.47;2.08;;;;;;;;;;5021110;28;20034;-87
2023/07/18 08:36:48;;;;;;;7.30;3.10;;;;;;;;;;5002269;28;20045;-85
2023/07/18 08:39:19;;;;;;;7.35;3.03;;;;;;;;;;5001343;28;20041;-84
2023/07/18 08:41:49;;;;;;;4.68;2.65;;;;;;;;;;5006709;28;20070;-85
2023/07/18 08:44:16;;;;;;;7.75;2.90;;;;;;;;;;5007447;28;20124;-88
2023/07/18 08:46:45;;;;;;;10.18;2.72;;;;;;;;;;5004734;28;20976;-86
2023/07/18 08:49:14;;;;;;;7.47;2.40;;;;;;;;;;5004250;28;20038;-90
2023/07/18 08:51:44;;;;;;;9.27;3.10;;;;;;;;;;5021547;28;20030;-87
2023/07/18 08:54:11;;;;;;;4.13;2.33;;;;;;;;;;5004893;28;20034;-89
2023/07/18 08:56:40;;;;;;;6.72;2.70;;;;;;;;;;5002751;28;20032;-88
2023/07/18 08:59:06;;;;;;;3.22;2.08;;;;;;;;;;5003904;28;20077;-82
2023/07/18 09:01:32;;;;;;;9.13;2.15;;;;;;;;;;5001588;28;20092;-89
2023/07/18 09:03:58;;;;;;;6.65;1.90;;;;;;;;;;5003391;28;20030;-86
2023/07/18 09:06:27;;;;;;;10.13;2.40;;;;;;;;;;5017833;28;20478;-87
2023/07/18 09:08:55;;;;;;;5.93;2.60;;;;;;;;;;5003272;28;20041;-88
2023/07/18 09:11:24;;;;;;;6.55;2.45;;;;;;;;;;5004191;28;20125;-89
2023/07/18 09:13:52;;;;;;;5.22;1.98;;;;;;;;;;5002670;28;20525;-89
2023/07/18 09:16:22;;;;;;;6.88;2.15;;;;;;;;;;5002735;28;20053;-85
2023/07/18 09:18:52;;;;;;;9.57;2.20;;;;;;;;;;4998556;28;20110;-85
2023/07/18 09:21:19;;;;;;;6.05;1.90;;;;;;;;;;5002576;28;20026;-84
2023/07/18 09:23:46;;;;;;;4.43;2.05;;;;;;;;;;4999522;28;20045;-87
2023/07/18 09:26:17;;;;;;;4.13;1.52;;;;;;;;;;4998921;28;20032;-85
2023/07/18 09:28:43;;;;;;;5.70;1.77;;;;;;;;;;4998822;28;20030;-83
2023/07/18 09:31:25;;;;;;;4.95;1.65;;;;;;;;;;4998594;28;20119;-82
2023/07/18 09:33:51;;;;;;;;;;;;;;;;;;5000581;28;20061;-88
2023/07/18 09:36:20;;;;;;;3.63;1.70;;;;;;;;;;5003082;28;19956;-85
2023/07/18 09:38:47;;;;;;;5.15;2.03;;;;;;;;;;5015025;28;20108;-83
2023/07/18 09:41:17;;;;;;;2.72;1.90;;;;;;;;;;4998972;28;20113;-83
2023/07/18 09:43:46;;;;;;;11.88;2.17;;;;;;;;;;4998528;28;20037;-82
2023/07/18 09:46:16;;;;;;;4.65;1.77;;;;;;;;;;5002780;28;20358;-82
2023/07/18 09:48:43;;;;;;;5.28;2.13;;;;;;;;;;4998667;28;20049;-81
2023/07/18 09:51:10;;;;;;;6.15;1.58;;;;;;;;;;4996555;28;20036;-81
2023/07/18 09:53:40;;;;;;;8.73;2.05;;;;;;;;;;4997906;28;20053;-83
2023/07/18 09:56:08;;;;;;;10.25;2.30;;;;;;;;;;4998090;28;20057;-80
2023/07/18 09:58:37;;;;;;;5.53;2.20;;;;;;;;;;4999135;28;20494;-81
2023/07/18 10:01:04;;;;;;;4.50;1.70;;;;;;;;;;4997043;28;20057;-80
2023/07/18 10:03:35;;;;;;;4.63;1.75;;;;;;;;;;5000816;28;20363;-80
2023/07/18 10:06:02;;;;;;;4.28;1.50;;;;;;;;;;5001063;28;20057;-80
2023/07/18 10:08:28;;;;;;;9.48;2.22;;;;;;;;;;5002252;28;20041;-80
2023/07/18 10:11:02;;;;;;;4.50;2.22;;;;;;;;;;5002619;28;20056;-80
2023/07/18 10:13:29;;;;;;;5.90;2.20;;;;;;;;;;5003740;28;20117;-83
2023/07/18 10:16:13;;;;;;;6.38;2.25;;;;;;;;;;5003532;28;20030;-79
2023/07/18 10:18:49;;;;;;;5.13;2.05;;;;;;;;;;5006716;28;20034;-77
2023/07/18 10:21:32;;;;;;;5.82;1.90;;;;;;;;;;5016421;28;20044;-81
2023/07/18 10:23:58;;;;;;;4.90;1.48;;;;;;;;;;5002588;28;20018;-78
2023/07/18 10:26:29;;;;;;;5.70;2.08;;;;;;;;;;5001413;28;20108;-82
2023/07/18 10:28:59;;;;;;;10.20;2.47;;;;;;;;;;5002633;28;20041;-81
2023/07/18 10:31:28;;;;;;;6.75;1.40;;;;;;;;;;5007358;28;20549;-81
2023/07/18 10:34:05;;;;;;;4.25;1.67;;;;;;;;;;5003688;28;20038;-82
2023/07/18 10:36:31;;;;;;;4.07;1.52;;;;;;;;;;5001171;28;20474;-82
2023/07/18 10:38:57;;;;;;;4.57;1.77;;;;;;;;;;5007618;28;20125;-85
2023/07/18 10:41:23;;;;;;;5.18;2.35;;;;;;;;;;5001997;28;20045;-86
2023/07/18 10:43:52;;;;;;;9.45;1.77;;;;;;;;;;5003153;28;20034;-84
2023/07/18 10:46:20;;;;;;;4.88;1.65;;;;;;;;;;5000218;28;20152;-84
2023/07/18 10:48:49;;;;;;;3.75;1.60;;;;;;;;;;5005639;28;20025;-83
2023/07/18 10:51:18;;;;;;;6.68;1.98;;;;;;;;;;5002248;28;21606;-86
2023/07/18 10:53:51;;;;;;;6.88;2.22;;;;;;;;;;5000595;28;20025;-84
2023/07/18 10:56:22;;;;;;;6.00;2.05;;;;;;;;;;5001693;28;20117;-81
2023/07/18 10:58:51;;;;;;;6.03;2.40;;;;;;;;;;5002374;28;20099;-90
2023/07/18 11:01:17;;;;;;;11.98;2.28;;;;;;;;;;5022493;28;20462;-81
2023/07/18 11:03:48;;;;;;;4.60;1.77;;;;;;;;;;5021908;28;20034;-86
2023/07/18 11:06:21;;;;;;;10.23;2.00;;;;;;;;;;5021938;28;20034;-86
2023/07/18 11:08:47;;;;;;;6.55;1.88;;;;;;;;;;5001048;28;20035;-80
2023/07/18 11:11:14;;;;;;;4.85;1.60;;;;;;;;;;5005156;28;20026;-85
2023/07/18 11:13:43;;;;;;;5.30;1.90;;;;;;;;;;5021099;28;20045;-84
2023/07/18 11:16:16;;;;;;;4.03;2.00;;;;;;;;;;5005405;28;20025;-80
2023/07/18 11:18:43;;;;;;;3.58;1.40;;;;;;;;;;5001053;28;20084;-81
2023/07/18 11:21:09;;;;;;;4.72;1.92;;;;;;;;;;5002014;28;20030;-80
2023/07/18 11:23:37;;;;;;;8.13;2.30;;;;;;;;;;5002184;28;20096;-83
2023/07/18 11:26:16;;;;;;;3.22;1.50;;;;;;;;;;5000263;28;20548;-83
2023/07/18 11:28:43;;;;;;;7.03;2.50;;;;;;;;;;5004419;28;20133;-84
2023/07/18 11:31:22;;;;;;;7.30;2.42;;;;;;;;;;5000311;28;20037;-82
2023/07/18 11:33:49;;;;;;;6.55;1.80;;;;;;;;;;5005087;28;20080;-83
2023/07/18 11:36:18;;;;;;;6.63;1.90;;;;;;;;;;5001456;28;20030;-82
2023/07/18 11:38:44;;;;;;;2.72;1.52;;;;;;;;;;5002006;28;20030;-81
2023/07/18 11:41:30;;;;;;;3.95;1.73;;;;;;;;;;5021164;28;20045;-80
2023/07/18 11:43:56;;;;;;;3.65;1.65;;;;;;;;;;5000742;28;20044;-83
2023/07/18 11:46:34;;;;;;;4.90;1.65;;;;;;;;;;5004213;28;20026;-81
2023/07/18 11:49:01;;;;;;;4.85;1.73;;;;;;;;;;5020830;28;20643;-85
2023/07/18 11:51:30;;;;;;;4.05;2.00;;;;;;;;;;5004572;28;20133;-85
2023/07/18 11:53:58;;;;;;;3.67;1.48;;;;;;;;;;5001109;28;20056;-84
2023/07/18 11:56:24;;;;;;;9.40;2.22;;;;;;;;;;4999070;28;21608;-85
2023/07/18 11:58:50;;;;;;;6.63;1.48;;;;;;;;;;5021391;28;20026;-84
2023/07/18 12:01:19;;;;;;;3.72;1.55;;;;;;;;;;5020818;28;20383;-80
2023/07/18 12:03:45;;;;;;;4.90;1.67;;;;;;;;;;5022393;28;20582;-85
2023/07/18 12:06:13;;;;;;;5.80;1.67;;;;;;;;;;4999799;28;20025;-82
2023/07/18 12:08:40;;;;;;;2.97;1.83;;;;;;;;;;5001825;28;20173;-84
2023/07/18 12:11:09;;;;;;;4.72;2.28;;;;;;;;;;5002483;28;20819;-83
2023/07/18 12:13:35;;;;;;;4.68;2.10;;;;;;;;;;5017186;28;20038;-83
2023/07/18 12:16:01;;;;;;;6.00;1.95;;;;;;;;;;5001797;28;20033;-84
2023/07/18 12:18:27;;;;;;;4.43;1.52;;;;;;;;;;5001856;28;20044;-80
2023/07/18 12:20:53;;;;;;;7.03;2.28;;;;;;;;;;5001601;28;20084;-84
2023/07/18 12:23:19;;;;;;;4.55;1.35;;;;;;;;;;5021699;28;20044;-85
2023/07/18 12:25:45;;;;;;;7.13;1.77;;;;;;;;;;5006829;28;20053;-85
2023/07/18 12:28:11;;;;;;;4.18;1.75;;;;;;;;;;4999039;28;20120;-85
2023/07/18 12:30:37;;;;;;;6.40;1.63;;;;;;;;;;4999173;28;20040;-85
2023/07/18 12:33:03;;;;;;;4.47;1.70;;;;;;;;;;4998235;28;20026;-84
2023/07/18 12:35:29;;;;;;;4.03;1.70;;;;;;;;;;5000731;28;20111;-85
2023/07/18 12:37:58;;;;;;;3.60;1.70;;;;;;;;;;5000072;28;20046;-83
2023/07/18 12:40:24;;;;;;;5.65;1.55;;;;;;;;;;5000286;28;20030;-82
2023/07/18 12:42:51;;;;;;;6.13;1.80;;;;;;;;;;4998093;28;20045;-83
2023/07/18 12:45:18;;;;;;;5.70;2.30;;;;;;;;;;5000913;28;20036;-85
2023/07/18 12:47:44;;;;;;;5.13;1.88;;;;;;;;;;5002999;28;20040;-83
2023/07/18 12:50:11;;;;;;;6.18;1.92;;;;;;;;;;4999886;28;20064;-82
2023/07/18 12:52:39;;;;;;;5.70;1.88;;;;;;;;;;5000780;28;20473;-82
2023/07/18 12:55:05;;;;;;;3.03;1.83;;;;;;;;;;5000225;28;20112;-83
2023/07/18 12:57:31;;;;;;;3.33;1.73;;;;;;;;;;4996940;28;20022;-82
2023/07/18 13:00:00;;;;;;;4.72;2.05;;;;;;;;;;4998330;28;20030;-84
2023/07/18 13:02:26;;;;;;;5.13;1.55;;;;;;;;;;5019617;28;20038;-82
2023/07/18 13:04:54;;;;;;;2.75;1.38;;;;;;;;;;4999510;28;20049;-83
2023/07/18 13:07:20;;;;;;;4.47;2.08;;;;;;;;;;5016266;28;20030;-83
2023/07/18 13:09:46;;;;;;;4.25;1.95;;;;;;;;;;5000015;28;20029;-81
2023/07/18 13:12:14;;;;;;;6.88;2.45;;;;;;;;;;4998625;28;20049;-81
2023/07/18 13:14:40;;;;;;;7.25;1.92;;;;;;;;;;4999969;28;20092;-83
2023/07/18 13:17:06;;;;;;;5.15;1.50;;;;;;;;;;5014743;28;20038;-84
2023/07/18 13:19:32;;;;;;;5.43;1.38;;;;;;;;;;4999097;28;20034;-82
2023/07/18 13:21:58;;;;;;;4.53;2.03;;;;;;;;;;5003323;28;20030;-82
2023/07/18 13:24:24;;;;;;;6.65;1.80;;;;;;;;;;5019659;28;20446;-85
2023/07/18 13:26:50;;;;;;;4.63;1.80;;;;;;;;;;5000891;28;20026;-83
2023/07/18 13:29:16;;;;;;;5.78;2.05;;;;;;;;;;4998861;28;20108;-85
2023/07/18 13:31:43;;;;;;;8.32;2.58;;;;;;;;;;4999762;28;20034;-84
2023/07/18 13:34:09;;;;;;;4.10;2.00;;;;;;;;;;5013461;28;20333;-85
2023/07/18 13:36:36;;;;;;;5.03;1.70;;;;;;;;;;5000706;28;20040;-84
2023/07/18 13:39:02;;;;;;;5.28;1.83;;;;;;;;;;4999187;28;20036;-86
2023/07/18 13:41:28;;;;;;;6.03;1.88;;;;;;;;;;5003769;28;20026;-86
2023/07/18 13:43:54;;;;;;;5.07;1.92;;;;;;;;;;5003449;28;20876;-82
2023/07/18 13:46:20;;;;;;;13.32;2.20;;;;;;;;;;5003390;28;20030;-85
2023/07/18 13:48:46;;;;;;;4.20;1.73;;;;;;;;;;5003294;28;20030;-84
2023/07/18 13:51:12;;;;;;;4.82;1.77;;;;;;;;;;5001239;28;20037;-82
2023/07/18 13:53:38;;;;;;;3.40;1.70;;;;;;;;;;5024003;28;20497;-84
2023/07/18 13:56:04;;;;;;;3.80;1.85;;;;;;;;;;5023169;28;20026;-80
2023/07/18 13:58:30;;;;;;;3.08;1.52;;;;;;;;;;5018420;28;20041;-83
2023/07/18 14:00:57;;;;;;;6.80;1.73;;;;;;;;;;5003813;28;20036;-83
2023/07/18 14:03:23;;;;;;;2.72;1.60;;;;;;;;;;5003267;28;20026;-85
2023/07/18 14:05:49;;;;;;;4.82;1.60;;;;;;;;;;5003016;28;20038;-81
2023/07/18 14:08:17;;;;;;;6.72;1.70;;;;;;;;;;5002677;28;20030;-84
2023/07/18 14:10:46;;;;;;;4.95;2.05;;;;;;;;;;5004582;28;20034;-81
2023/07/18 14:13:12;;;;;;;4.47;1.80;;;;;;;;;;5004145;28;20099;-85
2023/07/18 14:15:40;;;;;;;3.45;1.55;;;;;;;;;;5004932;28;20030;-82
2023/07/18 14:18:06;;;;;;;3.03;1.52;;;;;;;;;;5024631;28;20346;-86
2023/07/18 14:20:32;;;;;;;3.63;1.60;;;;;;;;;;5002154;28;20034;-84
2023/07/18 14:22:58;;;;;;;4.72;1.92;;;;;;;;;;5001213;28;20035;-85
2023/07/18 14:25:24;;;;;;;6.65;2.22;;;;;;;;;;5025250;28;20033;-85
2023/07/18 14:27:50;;;;;;;5.10;1.38;;;;;;;;;;5024116;28;20478;-82
2023/07/18 14:30:18;;;;;;;4.32;1.70;;;;;;;;;;5006051;28;20108;-84
2023/07/18 14:32:47;;;;;;;4.47;1.92;;;;;;;;;;5002131;28;20026;-85
2023/07/18 14:35:13;;;;;;;6.90;1.73;;;;;;;;;;5006460;28;20062;-85
2023/07/18 14:37:39;;;;;;;7.75;1.80;;;;;;;;;;5006696;28;20161;-85
2023/07/18 14:40:08;;;;;;;4.80;1.33;;;;;;;;;;5006331;28;20116;-83
2023/07/18 14:42:35;;;;;;;4.20;2.30;;;;;;;;;;5004311;28;20120;-86